createdAt,value
2018-06-16T00:00:37.902Z,68.83
2018-06-16T00:01:37.897Z,68.63
2018-06-16T00:02:37.897Z,68.63
2018-06-16T00:03:38.005Z,69.12
2018-06-16T00:04:37.852Z,68.63
2018-06-16T00:05:37.843Z,68.63
2018-06-16T00:06:37.852Z,68.63
2018-06-16T00:07:37.827Z,68.92
2018-06-16T00:08:37.829Z,68.63
2018-06-16T00:09:37.885Z,68.63
2018-06-16T00:10:37.812Z,68.92
2018-06-16T00:11:37.865Z,68.83
2018-06-16T00:12:37.829Z,68.63
2018-06-16T00:13:37.783Z,68.83
2018-06-16T00:14:37.816Z,68.54
2018-06-16T00:15:37.800Z,68.60
2018-06-16T00:16:38.723Z,68.63
2018-06-16T00:17:37.762Z,68.54
2018-06-16T00:18:37.747Z,68.63
2018-06-16T00:19:37.821Z,68.63
2018-06-16T00:20:38.571Z,68.83
2018-06-16T00:21:37.728Z,68.60
2018-06-16T00:22:37.721Z,68.70
2018-06-16T00:23:37.717Z,68.63
2018-06-16T00:24:37.712Z,68.73
2018-06-16T00:25:37.732Z,68.51
2018-06-16T00:26:37.707Z,68.70
2018-06-16T00:27:37.698Z,68.44
2018-06-16T00:28:37.666Z,68.41
2018-06-16T00:29:37.684Z,68.63
2018-06-16T00:30:37.732Z,68.60
2018-06-16T00:31:37.680Z,68.41
2018-06-16T00:32:37.671Z,68.51
2018-06-16T00:33:37.629Z,68.60
2018-06-16T00:34:37.650Z,68.79
2018-06-16T00:35:37.662Z,69.08
2018-06-16T00:36:37.652Z,68.98
2018-06-16T00:37:37.601Z,68.60
2018-06-16T00:38:37.596Z,68.70
2018-06-16T00:39:37.585Z,69.37
2018-06-16T00:40:37.616Z,68.60
2018-06-16T00:41:37.604Z,68.70
2018-06-16T00:42:37.574Z,69.27
2018-06-16T00:43:37.560Z,69.08
2018-06-16T00:44:37.651Z,69.18
2018-06-16T00:45:37.548Z,69.46
2018-06-16T00:46:37.657Z,69.66
2018-06-16T00:47:37.527Z,69.66
2018-06-16T00:48:37.551Z,69.66
2018-06-16T00:49:37.519Z,69.66
2018-06-16T00:50:37.649Z,69.46
2018-06-16T00:51:38.254Z,69.62
2018-06-16T00:52:37.536Z,69.66
2018-06-16T00:53:37.703Z,69.62
2018-06-16T00:54:37.485Z,70.01
2018-06-16T00:55:37.473Z,69.81
2018-06-16T00:56:37.493Z,69.62
2018-06-16T00:57:37.462Z,69.85
2018-06-16T00:58:37.527Z,69.72
2018-06-16T00:59:37.471Z,69.75
2018-06-16T01:00:37.457Z,69.85
2018-06-16T01:01:37.467Z,69.91
2018-06-16T01:02:37.416Z,69.75
2018-06-16T01:03:37.416Z,69.62
2018-06-16T01:04:37.415Z,69.91
2018-06-16T01:05:37.409Z,69.72
2018-06-16T01:06:37.424Z,70.39
2018-06-16T01:07:37.398Z,70.39
2018-06-16T01:08:37.377Z,69.91
2018-06-16T01:09:37.409Z,69.81
2018-06-16T01:10:37.381Z,69.62
2018-06-16T01:11:37.353Z,69.72
2018-06-16T01:12:37.350Z,70.01
2018-06-16T01:13:37.328Z,70.39
2018-06-16T01:14:37.361Z,70.10
2018-06-16T01:15:37.341Z,70.29
2018-06-16T01:16:37.304Z,70.29
2018-06-16T01:17:37.327Z,70.39
2018-06-16T01:18:37.373Z,70.29
2018-06-16T01:19:37.333Z,70.39
2018-06-16T01:20:37.297Z,70.49
2018-06-16T01:21:37.287Z,70.20
2018-06-16T01:22:37.296Z,70.78
2018-06-16T01:23:37.260Z,70.49
2018-06-16T01:24:37.255Z,70.87
2018-06-16T01:25:37.244Z,70.29
2018-06-16T01:26:37.281Z,70.87
2018-06-16T01:27:37.235Z,70.87
2018-06-16T01:28:37.228Z,70.78
2018-06-16T01:29:37.212Z,70.78
2018-06-16T01:30:37.203Z,70.97
2018-06-16T01:31:37.237Z,70.20
2018-06-16T01:32:37.187Z,70.20
2018-06-16T01:33:37.173Z,70.68
2018-06-16T01:34:37.232Z,70.97
2018-06-16T01:35:37.164Z,70.97
2018-06-16T01:36:37.140Z,70.78
2018-06-16T01:37:37.145Z,70.39
2018-06-16T01:38:37.152Z,70.29
2018-06-16T01:39:37.160Z,70.39
2018-06-16T01:40:37.120Z,70.78
2018-06-16T01:41:37.178Z,70.68
2018-06-16T01:42:37.149Z,70.58
2018-06-16T01:43:37.148Z,70.68
2018-06-16T01:44:37.149Z,70.68
2018-06-16T01:45:37.099Z,70.68
2018-06-16T01:46:37.071Z,70.87
2018-06-16T01:47:37.066Z,70.68
2018-06-16T01:48:37.065Z,70.87
2018-06-16T01:49:37.205Z,70.68
2018-06-16T01:50:37.038Z,70.49
2018-06-16T01:51:37.051Z,70.87
2018-06-16T01:52:37.021Z,70.68
2018-06-16T01:53:37.020Z,70.58
2018-06-16T01:54:37.018Z,70.78
2018-06-16T01:55:37.047Z,70.58
2018-06-16T01:56:37.031Z,70.68
2018-06-16T01:57:36.982Z,70.68
2018-06-16T01:58:36.983Z,70.68
2018-06-16T01:59:37.028Z,70.49
2018-06-16T02:00:37.006Z,71.06
2018-06-16T02:01:36.963Z,71.35
2018-06-16T02:02:36.948Z,71.64
2018-06-16T02:03:36.930Z,71.64
2018-06-16T02:04:36.936Z,71.73
2018-06-16T02:05:36.925Z,71.35
2018-06-16T02:06:36.921Z,71.73
2018-06-16T02:07:36.918Z,71.64
2018-06-16T02:08:36.932Z,70.97
2018-06-16T02:09:36.912Z,71.64
2018-06-16T02:10:36.880Z,71.45
2018-06-16T02:11:36.935Z,71.55
2018-06-16T02:12:36.893Z,71.25
2018-06-16T02:13:36.872Z,71.06
2018-06-16T02:14:36.851Z,71.25
2018-06-16T02:15:36.854Z,71.06
2018-06-16T02:16:36.872Z,71.06
2018-06-16T02:17:37.030Z,71.16
2018-06-16T02:18:36.824Z,71.06
2018-06-16T02:19:36.845Z,71.45
2018-06-16T02:20:36.803Z,71.25
2018-06-16T02:21:36.792Z,71.45
2018-06-16T02:22:36.788Z,71.55
2018-06-16T02:23:36.833Z,71.35
2018-06-16T02:24:36.790Z,71.64
2018-06-16T02:25:36.780Z,71.35
2018-06-16T02:26:36.756Z,71.45
2018-06-16T02:27:36.744Z,71.55
2018-06-16T02:28:36.753Z,71.35
2018-06-16T02:29:36.747Z,71.45
2018-06-16T02:30:36.719Z,71.55
2018-06-16T02:31:36.704Z,71.06
2018-06-16T02:32:36.741Z,71.64
2018-06-16T02:33:36.727Z,71.25
2018-06-16T02:34:36.761Z,71.35
2018-06-16T02:35:36.711Z,71.73
2018-06-16T02:36:36.669Z,71.64
2018-06-16T02:37:36.684Z,71.64
2018-06-16T02:38:36.697Z,71.64
2018-06-16T02:39:36.756Z,71.55
2018-06-16T02:40:36.637Z,71.55
2018-06-16T02:41:36.649Z,71.55
2018-06-16T02:42:36.632Z,71.64
2018-06-16T02:43:36.642Z,71.35
2018-06-16T02:44:36.636Z,71.45
2018-06-16T02:45:36.604Z,71.45
2018-06-16T02:46:36.610Z,72.31
2018-06-16T02:47:38.838Z,71.64
2018-06-16T02:48:36.601Z,71.64
2018-06-16T02:49:36.564Z,72.12
2018-06-16T02:50:36.703Z,72.12
2018-06-16T02:51:36.608Z,72.41
2018-06-16T02:52:36.547Z,72.12
2018-06-16T02:53:36.587Z,72.41
2018-06-16T02:54:36.534Z,72.02
2018-06-16T02:55:36.523Z,71.83
2018-06-16T02:56:36.556Z,72.22
2018-06-16T02:57:36.513Z,71.73
2018-06-16T02:58:36.500Z,72.22
2018-06-16T02:59:36.484Z,72.22
2018-06-16T03:00:37.330Z,72.02
2018-06-16T03:01:36.497Z,71.93
2018-06-16T03:02:36.515Z,71.93
2018-06-16T03:03:36.468Z,71.83
2018-06-16T03:04:36.461Z,72.22
2018-06-16T03:05:36.441Z,71.73
2018-06-16T03:06:36.510Z,72.22
2018-06-16T03:07:36.471Z,72.22
2018-06-16T03:08:36.413Z,72.02
2018-06-16T03:09:36.404Z,71.93
2018-06-16T03:10:36.410Z,71.93
2018-06-16T03:11:36.422Z,71.64
2018-06-16T03:12:36.423Z,71.93
2018-06-16T03:13:36.390Z,71.93
2018-06-16T03:14:36.374Z,71.93
2018-06-16T03:15:36.374Z,71.83
2018-06-16T03:16:36.351Z,71.93
2018-06-16T03:17:36.395Z,71.55
2018-06-16T03:18:36.365Z,72.22
2018-06-16T03:19:36.323Z,72.12
2018-06-16T03:20:36.366Z,71.93
2018-06-16T03:21:36.325Z,72.12
2018-06-16T03:22:36.308Z,72.12
2018-06-16T03:23:36.387Z,72.22
2018-06-16T03:24:36.288Z,72.22
2018-06-16T03:25:37.297Z,71.93
2018-06-16T03:26:36.803Z,72.02
2018-06-16T03:27:36.308Z,72.12
2018-06-16T03:28:36.264Z,72.12
2018-06-16T03:29:36.273Z,72.50
2018-06-16T03:30:36.260Z,72.12
2018-06-16T03:31:36.271Z,72.41
2018-06-16T03:32:36.245Z,72.41
2018-06-16T03:33:36.233Z,72.50
2018-06-16T03:34:36.218Z,72.41
2018-06-16T03:35:36.368Z,72.69
2018-06-16T03:36:36.202Z,72.69
2018-06-16T03:37:36.227Z,72.47
2018-06-16T03:38:36.180Z,72.37
2018-06-16T03:39:36.184Z,72.31
2018-06-16T03:40:36.162Z,72.22
2018-06-16T03:41:36.166Z,72.31
2018-06-16T03:42:36.186Z,72.60
2018-06-16T03:43:36.133Z,72.22
2018-06-16T03:44:36.260Z,72.22
2018-06-16T03:45:36.136Z,72.41
2018-06-16T03:46:36.169Z,72.50
2018-06-16T03:47:36.216Z,72.31
2018-06-16T03:48:36.155Z,72.50
2018-06-16T03:49:36.161Z,72.60
2018-06-16T03:50:36.098Z,72.50
2018-06-16T03:51:36.070Z,72.60
2018-06-16T03:52:36.179Z,72.41
2018-06-16T03:53:36.080Z,72.60
2018-06-16T03:54:36.054Z,72.50
2018-06-16T03:55:36.048Z,72.60
2018-06-16T03:56:36.067Z,72.50
2018-06-16T03:57:36.017Z,72.41
2018-06-16T03:58:36.111Z,72.69
2018-06-16T03:59:36.013Z,72.41
2018-06-16T04:00:36.013Z,72.31
2018-06-16T04:01:35.992Z,72.31
2018-06-16T04:02:36.003Z,72.60
2018-06-16T04:03:35.974Z,72.50
2018-06-16T04:04:36.011Z,72.50
2018-06-16T04:05:35.962Z,72.41
2018-06-16T04:06:35.960Z,72.60
2018-06-16T04:07:35.947Z,72.50
2018-06-16T04:08:35.975Z,72.41
2018-06-16T04:09:35.917Z,72.41
2018-06-16T04:10:35.931Z,72.41
2018-06-16T04:11:35.912Z,72.22
2018-06-16T04:12:35.916Z,72.12
2018-06-16T04:13:35.932Z,72.50
2018-06-16T04:14:35.886Z,72.60
2018-06-16T04:15:35.884Z,72.41
2018-06-16T04:16:35.916Z,72.69
2018-06-16T04:17:36.112Z,72.50
2018-06-16T04:18:35.864Z,72.69
2018-06-16T04:19:35.889Z,72.50
2018-06-16T04:20:35.850Z,72.50
2018-06-16T04:21:35.875Z,72.50
2018-06-16T04:22:35.842Z,72.31
2018-06-16T04:23:35.825Z,72.31
2018-06-16T04:24:35.819Z,72.60
2018-06-16T04:25:35.814Z,72.31
2018-06-16T04:26:35.947Z,72.41
2018-06-16T04:27:35.803Z,72.31
2018-06-16T04:28:36.426Z,72.31
2018-06-16T04:29:35.781Z,72.60
2018-06-16T04:30:35.770Z,72.50
2018-06-16T04:31:35.753Z,72.31
2018-06-16T04:32:35.780Z,72.31
2018-06-16T04:33:35.731Z,72.41
2018-06-16T04:34:35.732Z,72.31
2018-06-16T04:35:35.729Z,72.31
2018-06-16T04:36:35.768Z,72.41
2018-06-16T04:37:35.706Z,72.12
2018-06-16T04:38:35.734Z,72.31
2018-06-16T04:39:35.694Z,72.12
2018-06-16T04:40:35.685Z,72.92
2018-06-16T04:41:35.700Z,72.22
2018-06-16T04:42:35.666Z,72.92
2018-06-16T04:43:35.689Z,72.83
2018-06-16T04:44:35.660Z,72.34
2018-06-16T04:45:35.679Z,72.31
2018-06-16T04:46:35.639Z,72.31
2018-06-16T04:47:35.634Z,72.83
2018-06-16T04:48:35.649Z,72.73
2018-06-16T04:49:35.606Z,72.83
2018-06-16T04:50:35.625Z,72.54
2018-06-16T04:51:35.601Z,72.92
2018-06-16T04:52:35.590Z,73.11
2018-06-16T04:53:35.588Z,72.73
2018-06-16T04:54:35.576Z,72.73
2018-06-16T04:55:35.634Z,72.83
2018-06-16T04:56:35.568Z,72.73
2018-06-16T04:57:35.613Z,72.73
2018-06-16T04:58:37.335Z,73.02
2018-06-16T04:59:35.551Z,73.21
2018-06-16T05:00:35.526Z,73.21
2018-06-16T05:01:35.560Z,73.21
2018-06-16T05:02:35.508Z,73.41
2018-06-16T05:03:35.511Z,73.02
2018-06-16T05:04:35.503Z,73.11
2018-06-16T05:05:35.489Z,73.21
2018-06-16T05:06:35.523Z,73.31
2018-06-16T05:07:35.475Z,72.73
2018-06-16T05:08:35.517Z,72.92
2018-06-16T05:09:35.463Z,73.21
2018-06-16T05:10:35.451Z,72.73
2018-06-16T05:11:35.529Z,72.54
2018-06-16T05:12:35.462Z,72.83
2018-06-16T05:13:35.430Z,72.73
2018-06-16T05:14:35.445Z,72.64
2018-06-16T05:15:35.414Z,73.02
2018-06-16T05:16:35.410Z,73.02
2018-06-16T05:17:35.417Z,72.92
2018-06-16T05:18:35.434Z,72.92
2018-06-16T05:19:35.391Z,73.21
2018-06-16T05:20:35.398Z,72.73
2018-06-16T05:21:35.376Z,72.73
2018-06-16T05:22:35.366Z,72.73
2018-06-16T05:23:35.393Z,72.83
2018-06-16T05:24:35.348Z,72.73
2018-06-16T05:25:35.376Z,72.73
2018-06-16T05:26:35.336Z,72.73
2018-06-16T05:27:35.331Z,72.83
2018-06-16T05:28:35.392Z,72.54
2018-06-16T05:29:35.312Z,72.67
2018-06-16T05:30:35.301Z,73.35
2018-06-16T05:31:35.308Z,73.25
2018-06-16T05:32:35.295Z,72.67
2018-06-16T05:33:35.291Z,72.67
2018-06-16T05:34:35.311Z,72.77
2018-06-16T05:35:35.271Z,72.86
2018-06-16T05:36:35.254Z,72.96
2018-06-16T05:37:35.258Z,72.77
2018-06-16T05:38:35.253Z,72.96
2018-06-16T05:39:35.275Z,72.77
2018-06-16T05:40:35.234Z,73.15
2018-06-16T05:41:35.229Z,72.86
2018-06-16T05:42:35.220Z,72.96
2018-06-16T05:43:35.216Z,73.25
2018-06-16T05:44:35.233Z,73.35
2018-06-16T05:45:35.246Z,73.06
2018-06-16T05:46:35.187Z,72.67
2018-06-16T05:47:35.181Z,72.67
2018-06-16T05:48:35.173Z,72.77
2018-06-16T05:49:35.161Z,72.86
2018-06-16T05:50:35.200Z,72.67
2018-06-16T05:51:35.157Z,73.06
2018-06-16T05:52:35.153Z,73.25
2018-06-16T05:53:35.148Z,72.77
2018-06-16T05:54:35.136Z,72.96
2018-06-16T05:55:35.168Z,72.77
2018-06-16T05:56:35.167Z,72.67
2018-06-16T05:57:35.109Z,72.96
2018-06-16T05:58:35.114Z,72.96
2018-06-16T05:59:35.088Z,72.96
2018-06-16T06:00:35.148Z,72.96
2018-06-16T06:01:35.075Z,72.67
2018-06-16T06:02:35.087Z,72.29
2018-06-16T06:03:35.063Z,72.71
2018-06-16T06:04:35.059Z,72.58
2018-06-16T06:05:35.057Z,72.23
2018-06-16T06:06:35.050Z,72.90
2018-06-16T06:07:35.099Z,72.90
2018-06-16T06:08:35.028Z,72.42
2018-06-16T06:09:35.011Z,73.09
2018-06-16T06:10:35.044Z,72.71
2018-06-16T06:11:35.010Z,72.80
2018-06-16T06:12:35.028Z,72.61
2018-06-16T06:13:35.030Z,72.52
2018-06-16T06:14:34.985Z,72.61
2018-06-16T06:15:34.988Z,72.52
2018-06-16T06:16:34.978Z,72.61
2018-06-16T06:17:34.966Z,72.61
2018-06-16T06:18:35.111Z,72.42
2018-06-16T06:19:34.965Z,72.61
2018-06-16T06:20:34.955Z,72.90
2018-06-16T06:21:34.947Z,72.71
2018-06-16T06:22:34.932Z,73.28
2018-06-16T06:23:34.936Z,73.28
2018-06-16T06:24:34.921Z,72.80
2018-06-16T06:25:34.914Z,72.80
2018-06-16T06:26:34.898Z,72.80
2018-06-16T06:27:34.904Z,72.90
2018-06-16T06:28:34.892Z,72.71
2018-06-16T06:29:34.888Z,73.28
2018-06-16T06:30:34.887Z,73.28
2018-06-16T06:31:34.873Z,72.90
2018-06-16T06:32:34.862Z,73.47
2018-06-16T06:33:34.851Z,73.96
2018-06-16T06:34:34.855Z,73.77
2018-06-16T06:35:34.857Z,74.44
2018-06-16T06:36:34.832Z,74.25
2018-06-16T06:37:34.931Z,74.05
2018-06-16T06:38:34.820Z,73.71
2018-06-16T06:39:34.807Z,73.80
2018-06-16T06:40:34.813Z,73.99
2018-06-16T06:41:34.811Z,73.42
2018-06-16T06:42:34.787Z,74.29
2018-06-16T06:43:34.978Z,74.29
2018-06-16T06:44:34.929Z,75.05
2018-06-16T06:45:34.779Z,74.96
2018-06-16T06:46:34.782Z,74.38
2018-06-16T06:47:34.772Z,74.96
2018-06-16T06:48:34.753Z,75.54
2018-06-16T06:49:34.744Z,75.73
2018-06-16T06:50:34.813Z,75.54
2018-06-16T06:51:34.746Z,75.34
2018-06-16T06:52:34.730Z,75.34
2018-06-16T06:53:34.721Z,75.24
2018-06-16T06:54:34.712Z,74.67
2018-06-16T06:55:34.727Z,75.24
2018-06-16T06:56:34.742Z,75.15
2018-06-16T06:57:34.699Z,74.86
2018-06-16T06:58:34.712Z,74.48
2018-06-16T06:59:34.686Z,74.96
2018-06-16T07:00:34.814Z,74.57
2018-06-16T07:01:34.677Z,74.29
2018-06-16T07:02:34.666Z,74.29
2018-06-16T07:03:34.659Z,74.19
2018-06-16T07:04:34.656Z,74.57
2018-06-16T07:05:34.635Z,74.32
2018-06-16T07:06:34.652Z,74.57
2018-06-16T07:07:34.640Z,75.44
2018-06-16T07:08:34.627Z,75.28
2018-06-16T07:09:34.626Z,74.99
2018-06-16T07:10:34.630Z,74.90
2018-06-16T07:11:34.678Z,74.51
2018-06-16T07:12:34.610Z,74.13
2018-06-16T07:13:34.599Z,74.61
2018-06-16T07:14:34.611Z,74.41
2018-06-16T07:15:34.588Z,74.22
2018-06-16T07:16:34.590Z,74.41
2018-06-16T07:17:34.608Z,73.94
2018-06-16T07:18:34.572Z,74.41
2018-06-16T07:19:34.557Z,74.80
2018-06-16T07:20:34.555Z,74.22
2018-06-16T07:21:34.565Z,74.41
2018-06-16T07:22:36.415Z,74.41
2018-06-16T07:23:34.643Z,74.90
2018-06-16T07:24:34.532Z,74.32
2018-06-16T07:25:34.562Z,74.41
2018-06-16T07:26:34.529Z,74.22
2018-06-16T07:27:34.524Z,74.41
2018-06-16T07:28:34.626Z,74.32
2018-06-16T07:29:34.500Z,74.32
2018-06-16T07:30:34.492Z,74.22
2018-06-16T07:31:34.485Z,74.41
2018-06-16T07:32:34.487Z,74.61
2018-06-16T07:33:34.470Z,74.32
2018-06-16T07:34:34.522Z,74.22
2018-06-16T07:35:34.471Z,74.13
2018-06-16T07:36:34.464Z,73.84
2018-06-16T07:37:34.454Z,74.22
2018-06-16T07:38:34.453Z,73.74
2018-06-16T07:39:34.478Z,73.58
2018-06-16T07:40:34.578Z,74.13
2018-06-16T07:41:34.484Z,74.36
2018-06-16T07:42:34.425Z,74.36
2018-06-16T07:43:34.409Z,73.97
2018-06-16T07:44:34.407Z,73.78
2018-06-16T07:45:34.419Z,73.49
2018-06-16T07:46:34.403Z,73.55
2018-06-16T07:47:34.433Z,72.72
2018-06-16T07:48:34.396Z,72.72
2018-06-16T07:49:34.370Z,72.91
2018-06-16T07:50:34.451Z,73.49
2018-06-16T07:51:34.358Z,73.49
2018-06-16T07:52:34.362Z,73.10
2018-06-16T07:53:34.362Z,73.58
2018-06-16T07:54:34.359Z,73.58
2018-06-16T07:55:34.344Z,74.26
2018-06-16T07:56:34.342Z,73.68
2018-06-16T07:57:34.337Z,73.58
2018-06-16T07:58:34.324Z,73.49
2018-06-16T07:59:34.328Z,73.30
2018-06-16T08:00:34.348Z,73.58
2018-06-16T08:01:34.323Z,73.88
2018-06-16T08:02:34.360Z,72.53
2018-06-16T08:03:34.303Z,72.53
2018-06-16T08:04:34.302Z,72.33
2018-06-16T08:05:34.296Z,71.08
2018-06-16T08:06:34.286Z,70.89
2018-06-16T08:07:34.292Z,71.31
2018-06-16T08:08:34.405Z,71.89
2018-06-16T08:09:34.254Z,71.79
2018-06-16T08:10:34.252Z,71.31
2018-06-16T08:11:34.271Z,69.77
2018-06-16T08:12:34.250Z,68.61
2018-06-16T08:13:34.288Z,67.94
2018-06-16T08:14:34.285Z,68.71
2018-06-16T08:15:34.229Z,68.80
2018-06-16T08:16:34.226Z,67.36
2018-06-16T08:17:34.225Z,67.94
2018-06-16T08:18:34.230Z,68.13
2018-06-16T08:19:34.247Z,68.80
2018-06-16T08:20:34.278Z,68.52
2018-06-16T08:21:34.337Z,67.94
2018-06-16T08:22:34.203Z,67.46
2018-06-16T08:23:34.185Z,68.04
2018-06-16T08:24:34.236Z,68.42
2018-06-16T08:25:37.040Z,68.80
2018-06-16T08:26:34.171Z,68.13
2018-06-16T08:27:34.479Z,67.84
2018-06-16T08:28:34.204Z,67.16
2018-06-16T08:29:36.935Z,66.78
2018-06-16T08:30:34.160Z,67.36
2018-06-16T08:31:34.902Z,66.88
2018-06-16T08:32:35.602Z,66.88
2018-06-16T08:33:34.318Z,67.16
2018-06-16T08:38:12.301Z,67.07
2018-06-16T08:39:13.222Z,66.78
2018-06-16T08:40:12.133Z,66.78
2018-06-16T08:41:11.875Z,66.88
2018-06-16T08:42:11.933Z,67.16
2018-06-16T08:43:11.966Z,66.97
2018-06-16T08:44:11.870Z,67.00
2018-06-16T08:45:11.840Z,66.88
2018-06-16T08:46:11.877Z,66.72
2018-06-16T08:47:11.851Z,66.91
2018-06-16T08:48:11.839Z,67.10
2018-06-16T08:49:11.841Z,66.91
2018-06-16T08:50:11.863Z,66.91
2018-06-16T08:51:12.394Z,66.85
2018-06-16T08:52:11.810Z,65.88
2018-06-16T08:53:11.804Z,66.08
2018-06-16T08:54:11.793Z,66.94
2018-06-16T08:55:11.830Z,67.14
2018-06-16T08:56:11.792Z,67.04
2018-06-16T08:57:11.945Z,67.04
2018-06-16T08:58:11.785Z,66.59
2018-06-16T08:59:11.782Z,66.49
2018-06-16T09:00:11.780Z,64.95
2018-06-16T09:01:11.771Z,64.79
2018-06-16T09:02:11.789Z,64.31
2018-06-16T09:03:11.768Z,63.24
2018-06-16T09:04:11.754Z,62.76
2018-06-16T09:05:11.759Z,63.05
2018-06-16T09:06:12.239Z,62.76
2018-06-16T09:07:11.743Z,62.37
2018-06-16T09:08:12.862Z,61.89
2018-06-16T09:09:11.800Z,61.99
2018-06-16T09:10:11.724Z,62.28
2018-06-16T09:11:11.724Z,62.70
2018-06-16T09:12:11.735Z,63.18
2018-06-16T09:13:11.733Z,63.95
2018-06-16T09:14:12.769Z,63.40
2018-06-16T09:15:11.752Z,62.34
2018-06-16T09:16:11.701Z,62.82
2018-06-16T09:17:11.753Z,61.69
2018-06-16T09:18:11.805Z,61.21
2018-06-16T09:19:12.386Z,60.72
2018-06-16T09:20:12.546Z,58.60
2018-06-16T09:21:11.721Z,58.31
2018-06-16T09:22:11.706Z,57.63
2018-06-16T09:23:11.713Z,58.40
2018-06-16T09:24:11.700Z,58.89
2018-06-16T09:25:11.723Z,60.17
2018-06-16T09:26:11.739Z,59.50
2018-06-16T09:27:11.706Z,57.66
2018-06-16T09:28:11.686Z,58.34
2018-06-16T09:29:11.679Z,58.02
2018-06-16T09:30:11.729Z,58.44
2018-06-16T09:31:11.689Z,59.31
2018-06-16T09:32:11.735Z,57.76
2018-06-16T09:33:11.726Z,55.24
2018-06-16T09:34:11.715Z,55.24
2018-06-16T09:35:11.692Z,56.28
2018-06-16T09:36:11.736Z,57.08
2018-06-16T09:37:11.695Z,57.82
2018-06-16T09:38:11.679Z,59.28
2018-06-16T09:39:11.681Z,58.21
2018-06-16T09:40:11.694Z,56.95
2018-06-16T09:41:11.678Z,57.44
2018-06-16T09:42:11.692Z,57.15
2018-06-16T09:43:11.674Z,55.89
2018-06-16T09:44:11.660Z,55.11
2018-06-16T09:45:11.721Z,54.73
2018-06-16T09:46:11.910Z,55.02
2018-06-16T09:47:11.702Z,56.57
2018-06-16T09:48:11.666Z,57.28
2018-06-16T09:49:11.662Z,56.40
2018-06-16T09:50:11.656Z,54.57
2018-06-16T09:51:11.650Z,54.75
2018-06-16T09:52:19.594Z,55.43
2018-06-16T09:53:11.718Z,56.30
2018-06-16T09:54:11.649Z,54.75
2018-06-16T09:55:11.635Z,54.08
2018-06-16T09:56:11.745Z,54.25
2018-06-16T09:57:11.665Z,54.85
2018-06-16T09:58:14.591Z,55.34
2018-06-16T09:59:11.631Z,56.30
2018-06-16T10:00:11.660Z,56.70
2018-06-16T10:01:11.693Z,57.46
2018-06-16T10:02:11.636Z,55.15
2018-06-16T10:03:11.658Z,55.73
2018-06-16T10:04:11.632Z,56.30
2018-06-16T10:05:11.617Z,56.40
2018-06-16T10:06:11.613Z,55.34
2018-06-16T10:07:11.632Z,56.40
2018-06-16T10:08:11.609Z,56.30
2018-06-16T10:09:11.615Z,55.60
2018-06-16T10:10:11.604Z,55.51
2018-06-16T10:11:11.602Z,56.37
2018-06-16T10:12:11.665Z,55.60
2018-06-16T10:13:11.727Z,56.09
2018-06-16T10:14:11.585Z,56.76
2018-06-16T10:15:11.602Z,57.15
2018-06-16T10:16:11.600Z,57.44
2018-06-16T10:17:11.579Z,56.57
2018-06-16T10:18:11.599Z,56.95
2018-06-16T10:19:11.584Z,57.15
2018-06-16T10:20:11.583Z,55.99
2018-06-16T10:21:11.612Z,55.89
2018-06-16T10:22:11.578Z,56.28
2018-06-16T10:23:11.605Z,55.99
2018-06-16T10:24:11.577Z,55.02
2018-06-16T10:25:11.577Z,54.15
2018-06-16T10:26:11.561Z,54.63
2018-06-16T10:27:11.563Z,55.57
2018-06-16T10:28:11.591Z,55.70
2018-06-16T10:29:11.561Z,56.73
2018-06-16T10:30:11.550Z,57.79
2018-06-16T10:31:11.540Z,56.73
2018-06-16T10:32:11.557Z,56.35
2018-06-16T10:33:11.570Z,56.15
2018-06-16T10:34:11.541Z,56.71
2018-06-16T10:35:11.540Z,57.19
2018-06-16T10:36:11.540Z,56.13
2018-06-16T10:37:11.518Z,56.80
2018-06-16T10:38:11.588Z,57.48
2018-06-16T10:39:11.523Z,57.45
2018-06-16T10:40:11.515Z,57.84
2018-06-16T10:41:11.517Z,58.03
2018-06-16T10:42:11.513Z,57.64
2018-06-16T10:43:11.503Z,57.64
2018-06-16T10:44:11.532Z,57.64
2018-06-16T10:45:11.550Z,57.54
2018-06-16T10:46:11.508Z,57.74
2018-06-16T10:47:11.520Z,57.54
2018-06-16T10:48:11.487Z,57.45
2018-06-16T10:49:11.489Z,57.93
2018-06-16T10:50:11.491Z,57.26
2018-06-16T10:51:11.621Z,57.64
2018-06-16T10:52:11.463Z,57.45
2018-06-16T10:53:11.465Z,57.93
2018-06-16T10:54:11.462Z,59.28
2018-06-16T10:55:11.451Z,58.90
2018-06-16T10:56:11.457Z,59.12
2018-06-16T10:57:11.455Z,58.45
2018-06-16T10:58:11.496Z,58.73
2018-06-16T10:59:11.444Z,58.06
2018-06-16T11:00:11.438Z,57.60
2018-06-16T11:01:11.454Z,56.83
2018-06-16T11:02:11.448Z,56.15
2018-06-16T11:03:11.419Z,55.96
2018-06-16T11:04:11.798Z,55.87
2018-06-16T11:05:11.411Z,55.31
2018-06-16T11:06:11.416Z,54.73
2018-06-16T11:07:11.463Z,54.53
2018-06-16T11:08:11.427Z,56.40
2018-06-16T11:09:12.138Z,56.02
2018-06-16T11:10:11.459Z,54.75
2018-06-16T11:11:11.400Z,55.73
2018-06-16T11:12:11.435Z,56.04
2018-06-16T11:13:11.527Z,53.43
2018-06-16T11:14:11.457Z,53.36
2018-06-16T11:15:11.401Z,52.68
2018-06-16T11:16:11.398Z,52.68
2018-06-16T11:17:11.400Z,53.17
2018-06-16T11:18:11.436Z,52.78
2018-06-16T11:19:11.399Z,51.54
2018-06-16T11:20:11.387Z,51.13
2018-06-16T11:21:11.407Z,49.58
2018-06-16T11:22:11.378Z,50.55
2018-06-16T11:23:11.462Z,51.62
2018-06-16T11:24:11.391Z,51.72
2018-06-16T11:25:11.379Z,50.62
2018-06-16T11:26:11.385Z,50.92
2018-06-16T11:27:11.384Z,50.43
2018-06-16T11:28:11.412Z,50.72
2018-06-16T11:29:11.438Z,51.40
2018-06-16T11:30:11.375Z,51.98
2018-06-16T11:31:11.362Z,51.50
2018-06-16T11:32:11.439Z,50.72
2018-06-16T11:33:11.371Z,50.14
2018-06-16T11:34:11.366Z,50.24
2018-06-16T11:35:11.432Z,49.17
2018-06-16T11:36:11.368Z,49.17
2018-06-16T11:37:11.372Z,49.65
2018-06-16T11:38:12.121Z,48.97
2018-06-16T11:39:11.370Z,49.46
2018-06-16T11:40:11.352Z,50.04
2018-06-16T11:41:11.506Z,50.43
2018-06-16T11:42:11.351Z,51.20
2018-06-16T11:43:11.360Z,50.82
2018-06-16T11:44:11.342Z,50.04
2018-06-16T11:45:11.333Z,48.97
2018-06-16T11:46:11.364Z,50.24
2018-06-16T11:47:11.342Z,49.95
2018-06-16T11:48:11.371Z,49.46
2018-06-16T11:49:11.519Z,49.73
2018-06-16T11:50:11.339Z,50.02
2018-06-16T11:51:11.329Z,50.12
2018-06-16T11:52:11.451Z,51.28
2018-06-16T11:53:11.332Z,51.08
2018-06-16T11:54:11.332Z,50.98
2018-06-16T11:55:11.332Z,50.98
2018-06-16T11:56:11.330Z,51.56
2018-06-16T11:57:11.372Z,51.47
2018-06-16T11:58:11.336Z,51.56
2018-06-16T11:59:11.326Z,52.24
2018-06-16T12:00:11.322Z,51.95
2018-06-16T12:01:11.312Z,52.22
2018-06-16T12:02:11.296Z,51.47
2018-06-16T12:03:12.161Z,51.15
2018-06-16T12:04:11.305Z,51.76
2018-06-16T12:05:11.294Z,51.64
2018-06-16T12:06:11.307Z,51.15
2018-06-16T12:07:11.300Z,50.28
2018-06-16T12:08:12.638Z,50.57
2018-06-16T12:09:11.281Z,51.44
2018-06-16T12:10:11.313Z,51.35
2018-06-16T12:11:11.293Z,51.54
2018-06-16T12:12:11.278Z,51.93
2018-06-16T12:13:11.311Z,51.93
2018-06-16T12:14:11.259Z,51.25
2018-06-16T12:15:11.531Z,51.73
2018-06-16T12:16:12.149Z,51.44
2018-06-16T12:17:11.252Z,49.99
2018-06-16T12:18:11.269Z,50.28
2018-06-16T12:19:11.275Z,50.07
2018-06-16T12:20:11.250Z,49.29
2018-06-16T12:21:11.286Z,50.74
2018-06-16T12:22:11.249Z,49.68
2018-06-16T12:23:11.247Z,49.10
2018-06-16T12:24:11.236Z,48.03
2018-06-16T12:25:11.233Z,48.23
2018-06-16T12:26:11.404Z,48.32
2018-06-16T12:27:11.231Z,49.39
2018-06-16T12:28:11.206Z,51.13
2018-06-16T12:29:11.216Z,49.97
2018-06-16T12:30:11.222Z,49.10
2018-06-16T12:31:11.233Z,48.61
2018-06-16T12:32:11.358Z,48.59
2018-06-16T12:33:11.194Z,48.61
2018-06-16T12:34:11.201Z,49.10
2018-06-16T12:35:11.196Z,51.61
2018-06-16T12:36:11.279Z,48.90
2018-06-16T12:37:11.182Z,49.39
2018-06-16T12:38:11.341Z,48.49
2018-06-16T12:39:11.190Z,48.52
2018-06-16T12:40:11.171Z,48.42
2018-06-16T12:41:11.198Z,47.36
2018-06-16T12:42:11.164Z,47.84
2018-06-16T12:43:11.175Z,48.23
2018-06-16T12:44:11.164Z,48.13
2018-06-16T12:45:11.664Z,48.13
2018-06-16T12:46:11.150Z,47.16
2018-06-16T12:47:11.158Z,47.45
2018-06-16T12:48:11.210Z,47.16
2018-06-16T12:49:11.174Z,47.07
2018-06-16T12:50:11.153Z,47.48
2018-06-16T12:51:11.168Z,48.23
2018-06-16T12:52:11.132Z,47.36
2018-06-16T12:53:11.131Z,47.74
2018-06-16T12:54:11.124Z,47.28
2018-06-16T12:55:11.173Z,46.78
2018-06-16T12:56:11.115Z,47.19